createdAt,value
2017-10-24T00:00:36.229Z,25.70
2017-10-24T00:03:06.098Z,27.87
2017-10-24T00:05:35.981Z,25.60
2017-10-24T00:08:05.884Z,21.93
2017-10-24T00:10:35.770Z,31.63
2017-10-24T00:13:05.634Z,23.90
2017-10-24T00:15:35.517Z,26.93
2017-10-24T00:18:05.379Z,22.83
2017-10-24T00:20:35.259Z,37.03
2017-10-24T00:23:05.126Z,23.10
2017-10-24T00:25:35.005Z,31.13
2017-10-24T00:28:04.886Z,29.63
2017-10-24T00:30:34.777Z,23.77
2017-10-24T00:33:04.670Z,27.83
2017-10-24T00:35:34.548Z,29.73
2017-10-24T00:38:04.437Z,30.27
2017-10-24T00:40:34.314Z,34.77
2017-10-24T00:43:04.176Z,29.13
2017-10-24T00:45:34.044Z,28.63
2017-10-24T00:48:03.911Z,23.53
2017-10-24T00:50:33.827Z,31.43
2017-10-24T00:53:03.674Z,25.30
2017-10-24T00:55:33.531Z,22.83
2017-10-24T00:58:03.380Z,31.20
2017-10-24T01:00:33.307Z,28.90
2017-10-24T01:03:03.178Z,28.90
2017-10-24T01:05:33.056Z,26.07
2017-10-24T01:08:02.944Z,28.60
2017-10-24T01:10:33.338Z,29.87
2017-10-24T01:13:03.230Z,28.77
2017-10-24T01:15:33.111Z,30.70
2017-10-24T01:18:02.977Z,34.90
2017-10-24T01:20:33.172Z,32.93
2017-10-24T01:23:03.022Z,35.37
2017-10-24T01:25:32.905Z,32.37
2017-10-24T01:28:02.751Z,39.70
2017-10-24T01:30:32.629Z,34.57
2017-10-24T01:33:02.472Z,33.67
2017-10-24T01:35:32.350Z,29.40
2017-10-24T01:38:02.202Z,31.50
2017-10-24T01:40:32.057Z,30.00
2017-10-24T01:43:01.932Z,31.43
2017-10-24T01:45:32.090Z,35.60
2017-10-24T01:48:02.030Z,35.63
2017-10-24T01:50:31.878Z,36.70
2017-10-24T01:53:01.764Z,37.13
2017-10-24T01:55:31.573Z,39.57
2017-10-24T01:58:01.555Z,32.40
2017-10-24T02:00:31.412Z,44.20
2017-10-24T02:03:01.284Z,34.07
2017-10-24T02:05:31.118Z,37.33
2017-10-24T02:08:00.988Z,43.07
2017-10-24T02:10:30.934Z,39.40
2017-10-24T02:13:00.782Z,39.17
2017-10-24T02:15:30.683Z,38.90
2017-10-24T02:18:00.559Z,44.93
2017-10-24T02:20:30.450Z,36.70
2017-10-24T02:23:00.301Z,40.60
2017-10-24T02:25:30.179Z,35.67
2017-10-24T02:37:45.073Z,36.77
2017-10-24T02:40:14.963Z,35.13
2017-10-24T02:42:44.841Z,36.67
2017-10-24T02:45:14.743Z,39.13
2017-10-24T02:47:44.598Z,38.83
2017-10-24T02:50:14.508Z,39.73
2017-10-24T02:52:44.369Z,37.03
2017-10-24T02:55:14.279Z,38.83
2017-10-24T02:57:44.557Z,36.80
2017-10-24T03:00:14.454Z,38.43
2017-10-24T03:02:44.449Z,47.77
2017-10-24T03:05:14.349Z,38.97
2017-10-24T03:07:44.218Z,36.23
2017-10-24T03:10:14.092Z,37.40
2017-10-24T03:12:43.967Z,43.20
2017-10-24T03:15:13.880Z,41.97
2017-10-24T03:17:43.767Z,34.83
2017-10-24T03:20:13.629Z,36.57
2017-10-24T03:22:43.541Z,31.17
2017-10-24T03:25:13.399Z,37.10
2017-10-24T03:27:43.274Z,36.70
2017-10-24T03:30:13.126Z,41.17
2017-10-24T03:32:42.998Z,38.77
2017-10-24T03:35:12.858Z,41.47
2017-10-24T03:37:42.705Z,45.20
2017-10-24T03:40:12.597Z,42.70
2017-10-24T03:42:42.450Z,50.00
2017-10-24T03:45:12.340Z,45.23
2017-10-24T03:47:42.215Z,47.47
2017-10-24T03:50:12.096Z,49.27
2017-10-24T03:52:41.954Z,43.20
2017-10-24T03:55:11.815Z,44.23
2017-10-24T03:57:41.723Z,37.83
2017-10-24T04:00:11.569Z,38.83
2017-10-24T04:02:41.481Z,48.77
2017-10-24T04:05:11.335Z,45.87
2017-10-24T04:07:41.274Z,41.50
2017-10-24T04:10:11.137Z,48.03
2017-10-24T04:12:41.040Z,38.47
2017-10-24T04:15:10.915Z,46.67
2017-10-24T04:17:40.791Z,52.90
2017-10-24T04:20:10.774Z,52.03
2017-10-24T04:22:41.014Z,54.90
2017-10-24T04:25:10.906Z,56.90
2017-10-24T04:27:40.806Z,58.10
2017-10-24T04:30:10.708Z,53.47
2017-10-24T04:32:40.564Z,52.93
2017-10-24T04:35:10.445Z,44.00
2017-10-24T04:37:40.295Z,54.13
2017-10-24T04:40:10.230Z,45.37
2017-10-24T04:42:40.085Z,48.30
2017-10-24T04:45:09.955Z,56.53
2017-10-24T04:47:39.836Z,47.70
2017-10-24T04:50:09.702Z,47.23
2017-10-24T04:52:39.635Z,50.83
2017-10-24T04:55:09.495Z,51.50
2017-10-24T04:57:39.364Z,47.67
2017-10-24T05:00:09.225Z,50.27
2017-10-24T05:02:39.116Z,47.43
2017-10-24T05:05:09.143Z,49.30
2017-10-24T05:07:38.999Z,47.37
2017-10-24T05:10:08.882Z,58.37
2017-10-24T05:12:38.762Z,49.40
2017-10-24T05:15:08.801Z,47.60
2017-10-24T05:17:38.661Z,63.90
2017-10-24T05:20:08.561Z,48.50
2017-10-24T05:22:38.423Z,48.80
2017-10-24T05:25:08.304Z,39.17
2017-10-24T05:27:38.160Z,45.50
2017-10-24T05:30:08.102Z,41.77
2017-10-24T05:32:37.963Z,41.70
2017-10-24T05:35:07.912Z,43.00
2017-10-24T05:37:37.813Z,37.13
2017-10-24T05:40:07.658Z,35.80
2017-10-24T05:42:37.646Z,39.60
2017-10-24T05:45:07.515Z,49.07
2017-10-24T05:47:37.388Z,39.73
2017-10-24T05:50:07.247Z,39.87
2017-10-24T05:52:37.154Z,37.77
2017-10-24T05:55:07.029Z,38.07
2017-10-24T05:57:36.922Z,35.40
2017-10-24T06:00:06.809Z,39.53
2017-10-24T06:02:36.689Z,39.57
2017-10-24T06:05:06.596Z,40.17
2017-10-24T06:07:36.445Z,41.97
2017-10-24T06:10:06.342Z,36.87
2017-10-24T06:12:36.218Z,42.30
2017-10-24T06:15:06.142Z,40.00
2017-10-24T06:17:35.995Z,38.80
2017-10-24T06:20:05.842Z,32.73
2017-10-24T06:22:35.970Z,44.67
2017-10-24T06:25:05.837Z,41.87
2017-10-24T06:27:35.727Z,47.17
2017-10-24T06:30:05.573Z,42.03
2017-10-24T06:32:35.463Z,45.37
2017-10-24T06:35:05.315Z,50.43
2017-10-24T06:37:35.198Z,54.03
2017-10-24T06:40:05.058Z,48.13
2017-10-24T06:42:34.916Z,45.10
2017-10-24T06:45:04.798Z,43.93
2017-10-24T06:47:34.651Z,56.37
2017-10-24T06:50:04.544Z,45.00
2017-10-24T06:52:34.424Z,47.03
2017-10-24T06:55:04.316Z,42.67
2017-10-24T06:57:34.202Z,50.40
2017-10-24T07:00:04.087Z,44.93
2017-10-24T07:02:33.956Z,46.43
2017-10-24T07:05:03.833Z,43.50
2017-10-24T07:07:33.735Z,46.40
2017-10-24T07:10:03.721Z,48.17
2017-10-24T07:12:33.615Z,51.63
2017-10-24T07:15:03.476Z,51.77
2017-10-24T07:17:33.347Z,47.73
2017-10-24T07:20:03.255Z,51.83
2017-10-24T07:22:33.163Z,45.33
2017-10-24T07:25:03.037Z,50.30
2017-10-24T07:27:32.988Z,44.67
2017-10-24T07:30:02.881Z,56.00
2017-10-24T07:32:32.758Z,50.40
2017-10-24T07:35:02.652Z,53.43
2017-10-24T07:37:32.630Z,44.17
2017-10-24T07:40:02.511Z,48.17
2017-10-24T07:42:32.417Z,44.70
2017-10-24T07:45:02.308Z,45.10
2017-10-24T07:47:32.343Z,40.40
2017-10-24T07:50:02.291Z,42.27
2017-10-24T07:52:32.189Z,38.90
2017-10-24T07:55:02.062Z,34.30
2017-10-24T07:57:32.042Z,37.17
2017-10-24T08:00:01.922Z,29.17
2017-10-24T08:02:31.811Z,32.27
2017-10-24T08:05:01.695Z,30.73
2017-10-24T08:07:31.726Z,28.60
2017-10-24T08:10:01.578Z,31.87
2017-10-24T08:12:31.488Z,28.10
2017-10-24T08:15:01.404Z,36.10
2017-10-24T08:17:31.474Z,32.43
2017-10-24T08:20:01.375Z,28.67
2017-10-24T08:22:31.257Z,30.23
2017-10-24T08:25:01.223Z,31.93
2017-10-24T08:27:31.143Z,29.80
2017-10-24T08:30:01.002Z,31.33
2017-10-24T08:32:30.883Z,31.83
2017-10-24T08:35:01.187Z,27.30
2017-10-24T08:37:31.305Z,29.43
2017-10-24T08:40:01.170Z,29.10
2017-10-24T08:42:31.027Z,33.47
2017-10-24T08:45:01.344Z,32.73
2017-10-24T08:47:31.526Z,37.30
2017-10-24T08:50:01.755Z,32.40
2017-10-24T08:52:31.620Z,41.27
2017-10-24T08:55:01.630Z,33.10
2017-10-24T08:57:31.687Z,32.13
2017-10-24T09:00:01.608Z,32.80
2017-10-24T09:02:31.630Z,36.77
2017-10-24T09:05:01.548Z,38.50
2017-10-24T09:07:31.439Z,35.53
2017-10-24T09:10:01.368Z,42.40
2017-10-24T09:12:46.907Z,50.13
2017-10-24T09:18:17.310Z,40.40
2017-10-24T09:20:47.555Z,36.90
2017-10-24T09:23:17.427Z,42.07
2017-10-24T09:25:47.594Z,40.30
2017-10-24T09:28:17.483Z,39.07
2017-10-24T09:30:47.641Z,36.40
2017-10-24T09:33:17.520Z,43.33
2017-10-24T09:35:47.384Z,40.07
2017-10-24T09:38:17.309Z,47.80
2017-10-24T09:40:47.185Z,45.90
2017-10-24T09:43:17.030Z,38.30
2017-10-24T09:45:46.878Z,43.63
2017-10-24T09:48:16.793Z,39.90
2017-10-24T09:51:02.530Z,43.90
2017-10-24T09:53:32.898Z,40.97
2017-10-24T09:56:08.702Z,40.07
2017-10-24T09:58:38.881Z,40.83
2017-10-24T10:04:09.685Z,46.80
2017-10-24T10:06:51.273Z,52.07
2017-10-24T10:09:21.451Z,55.20
2017-10-24T10:11:51.322Z,47.97
2017-10-24T10:14:23.389Z,50.57
2017-10-24T10:16:53.269Z,54.77
2017-10-24T10:19:23.172Z,42.53
2017-10-24T10:21:53.914Z,47.20
2017-10-24T10:24:31.525Z,49.87
2017-10-24T10:27:01.684Z,55.17
2017-10-24T10:29:31.546Z,53.40
2017-10-24T10:32:01.426Z,61.30
2017-10-24T10:34:31.316Z,52.13
2017-10-24T10:37:01.571Z,51.37
2017-10-24T10:39:31.481Z,58.70
2017-10-24T10:42:01.627Z,47.70
2017-10-24T10:44:31.527Z,57.73
2017-10-24T10:47:01.738Z,51.63
2017-10-24T10:49:31.709Z,51.03
2017-10-24T10:52:01.598Z,53.47
2017-10-24T10:54:31.451Z,55.60
2017-10-24T10:57:01.598Z,61.80
2017-10-24T10:59:31.454Z,62.67
2017-10-24T11:02:01.814Z,65.63
2017-10-24T11:04:31.690Z,58.33
2017-10-24T11:07:01.932Z,56.47
2017-10-24T11:09:31.830Z,62.07
2017-10-24T11:12:02.001Z,69.90
2017-10-24T11:14:31.881Z,59.50
2017-10-24T11:17:01.798Z,65.20
2017-10-24T11:19:31.664Z,62.40
2017-10-24T11:22:01.860Z,60.03
2017-10-24T11:24:31.764Z,59.13
2017-10-24T11:40:01.719Z,48.60
2017-10-24T11:42:31.680Z,56.80
2017-10-24T11:45:01.577Z,62.43
2017-10-24T11:47:31.729Z,64.13
2017-10-24T11:50:01.625Z,60.57
2017-10-24T11:52:31.625Z,59.97
2017-10-24T11:55:01.516Z,52.13
2017-10-24T11:57:31.685Z,55.00
2017-10-24T12:00:01.583Z,49.10
2017-10-24T12:02:31.910Z,42.27
2017-10-24T12:05:01.799Z,46.93
2017-10-24T12:07:32.037Z,41.83
2017-10-24T12:10:01.923Z,46.40
2017-10-24T12:12:31.831Z,40.33
2017-10-24T12:15:01.712Z,44.83
2017-10-24T12:17:31.868Z,43.77
2017-10-24T12:20:01.734Z,50.70
2017-10-24T12:22:31.938Z,45.00
2017-10-24T12:25:01.822Z,46.43
2017-10-24T12:27:32.373Z,43.00
2017-10-24T12:30:02.221Z,39.87
2017-10-24T12:32:32.086Z,43.87
2017-10-24T12:35:01.947Z,46.00
2017-10-24T12:37:31.907Z,44.90
2017-10-24T12:40:02.143Z,43.53
2017-10-24T12:42:32.469Z,39.23
2017-10-24T12:45:02.450Z,36.73
2017-10-24T12:47:32.323Z,38.07
2017-10-24T12:50:15.352Z,42.90
2017-10-24T12:52:45.215Z,30.40
2017-10-24T12:55:15.087Z,35.03
2017-10-24T12:57:45.543Z,32.23
2017-10-24T13:00:16.275Z,29.87
2017-10-24T13:02:46.147Z,30.03
2017-10-24T13:05:16.002Z,33.90
2017-10-24T13:07:46.183Z,40.00
2017-10-24T13:10:16.211Z,30.90
2017-10-24T13:12:46.405Z,27.20
2017-10-24T13:15:16.267Z,28.77
2017-10-24T13:17:46.207Z,27.70
2017-10-24T13:20:16.088Z,29.57
2017-10-24T13:22:45.987Z,31.20
2017-10-24T13:25:15.986Z,29.27
2017-10-24T13:27:46.029Z,30.20
2017-10-24T13:30:16.195Z,27.00
2017-10-24T13:32:46.065Z,30.93
2017-10-24T13:35:15.980Z,26.73
2017-10-24T13:37:45.883Z,32.40
2017-10-24T13:40:16.270Z,26.40
2017-10-24T13:42:46.180Z,27.83
2017-10-24T13:45:16.213Z,27.30
2017-10-24T13:47:46.201Z,32.67
2017-10-24T13:50:16.710Z,29.63
2017-10-24T13:52:46.716Z,27.37
2017-10-24T13:55:16.632Z,24.80
2017-10-24T13:57:46.537Z,25.57
2017-10-24T14:00:16.790Z,26.07
2017-10-24T14:02:46.674Z,25.57
2017-10-24T14:05:23.696Z,24.27
2017-10-24T14:07:59.182Z,28.03
2017-10-24T14:10:34.971Z,30.63
2017-10-24T14:13:04.848Z,25.40
2017-10-24T14:15:35.147Z,23.30
2017-10-24T14:18:05.016Z,23.77
2017-10-24T14:20:35.427Z,22.97
2017-10-24T14:23:05.308Z,22.73
2017-10-24T14:25:35.499Z,23.73
2017-10-24T14:28:05.373Z,24.43
2017-10-24T14:30:35.639Z,25.53
2017-10-24T14:33:05.522Z,26.83
2017-10-24T14:35:35.456Z,26.00
2017-10-24T14:38:05.459Z,23.70
2017-10-24T14:40:35.802Z,28.87
2017-10-24T14:43:06.117Z,28.13
2017-10-24T14:45:36.043Z,25.73
2017-10-24T14:48:05.965Z,29.13
2017-10-24T14:50:35.922Z,26.97
2017-10-24T14:53:05.804Z,30.57
2017-10-24T14:55:36.706Z,30.37
2017-10-24T14:58:06.573Z,34.13
2017-10-24T15:00:36.745Z,36.60
2017-10-24T15:03:06.618Z,35.17
2017-10-24T15:05:36.922Z,30.60
2017-10-24T15:08:06.836Z,31.07
2017-10-24T15:10:37.117Z,28.20
2017-10-24T15:13:07.375Z,29.60
2017-10-24T15:15:37.566Z,29.80
2017-10-24T15:18:07.531Z,32.77
2017-10-24T15:20:37.425Z,33.20
2017-10-24T15:23:07.287Z,27.90
2017-10-24T15:25:37.244Z,27.50
2017-10-24T15:28:07.119Z,29.50
2017-10-24T15:30:36.997Z,30.53
2017-10-24T15:33:07.153Z,33.03
2017-10-24T15:35:37.010Z,31.80
2017-10-24T15:38:07.179Z,31.83
2017-10-24T15:40:37.050Z,37.17
2017-10-24T15:43:07.335Z,31.17
2017-10-24T15:45:37.216Z,30.07
2017-10-24T15:48:07.096Z,35.57
2017-10-24T15:50:37.034Z,35.70
2017-10-24T15:53:07.312Z,34.73
2017-10-24T15:55:37.169Z,35.33
2017-10-24T15:58:07.085Z,34.20
2017-10-24T16:00:36.958Z,37.37
2017-10-24T16:03:07.183Z,36.43
2017-10-24T16:05:37.046Z,32.33
2017-10-24T16:08:07.283Z,33.37
2017-10-24T16:10:37.304Z,35.33
2017-10-24T16:13:08.350Z,32.80
2017-10-24T16:15:38.212Z,34.80
2017-10-24T16:18:08.151Z,33.33
2017-10-24T16:20:38.067Z,30.87
2017-10-24T16:23:07.918Z,33.83
2017-10-24T16:25:37.861Z,33.70
2017-10-24T16:28:07.765Z,31.47
2017-10-24T16:30:37.959Z,30.93
2017-10-24T16:33:07.863Z,31.77
2017-10-24T16:35:38.163Z,30.27
2017-10-24T16:38:08.052Z,34.57
2017-10-24T16:40:38.300Z,30.93
2017-10-24T16:43:08.259Z,37.97
2017-10-24T16:45:38.209Z,30.43
2017-10-24T16:48:08.232Z,29.80
2017-10-24T16:50:38.581Z,33.90
2017-10-24T16:53:09.273Z,30.03
2017-10-24T16:55:39.230Z,30.83
2017-10-24T16:58:09.206Z,32.83
2017-10-24T17:00:39.462Z,28.67
2017-10-24T17:03:09.467Z,34.00
2017-10-24T17:05:39.362Z,34.30
2017-10-24T17:08:09.305Z,31.20
2017-10-24T17:10:39.182Z,36.33
2017-10-24T17:13:09.042Z,31.93
2017-10-24T17:15:39.478Z,32.60
2017-10-24T17:18:09.358Z,30.90
2017-10-24T17:20:39.203Z,31.57
2017-10-24T17:23:09.398Z,30.23
2017-10-24T17:25:39.249Z,30.20
2017-10-24T17:28:09.142Z,32.80
2017-10-24T17:30:39.171Z,31.27
2017-10-24T17:33:09.089Z,33.87
2017-10-24T17:35:39.119Z,29.57
2017-10-24T17:38:08.991Z,32.87
2017-10-24T17:40:38.910Z,31.00
2017-10-24T17:43:08.918Z,30.20
2017-10-24T17:45:38.794Z,30.50
2017-10-24T17:48:08.723Z,33.93
2017-10-24T17:50:38.711Z,30.40
2017-10-24T17:53:08.590Z,31.47
2017-10-24T17:55:38.934Z,32.20
2017-10-24T17:58:08.787Z,31.87
2017-10-24T18:00:39.021Z,32.43
2017-10-24T18:03:08.920Z,31.33
2017-10-24T18:05:40.142Z,29.77
2017-10-24T18:08:10.046Z,31.03
2017-10-24T18:10:40.322Z,29.50
2017-10-24T18:13:10.225Z,30.93
2017-10-24T18:15:40.465Z,30.53
2017-10-24T18:18:10.372Z,31.80
2017-10-24T18:20:40.901Z,34.23
2017-10-24T18:23:10.772Z,31.63
2017-10-24T18:25:40.932Z,29.33
2017-10-24T18:28:10.797Z,31.57
2017-10-24T18:30:41.063Z,33.60
2017-10-24T18:33:10.977Z,33.60
2017-10-24T18:35:41.249Z,33.13
2017-10-24T18:38:11.175Z,37.47
2017-10-24T18:40:41.331Z,32.57
2017-10-24T18:43:11.203Z,33.20
2017-10-24T18:45:41.111Z,33.30
2017-10-24T18:48:11.117Z,31.07
2017-10-24T18:50:40.986Z,33.83
2017-10-24T18:53:10.881Z,33.90
2017-10-24T18:55:40.758Z,36.97
2017-10-24T18:58:10.949Z,36.17
2017-10-24T19:00:40.869Z,39.27
2017-10-24T19:03:10.758Z,42.67
2017-10-24T19:05:40.614Z,37.70
2017-10-24T19:08:10.807Z,38.07
2017-10-24T19:10:40.684Z,38.67
2017-10-24T19:13:10.818Z,35.50
2017-10-24T19:15:40.823Z,39.57
2017-10-24T19:18:10.742Z,47.13
2017-10-24T19:20:40.627Z,42.17
2017-10-24T19:23:10.875Z,37.77
2017-10-24T19:25:40.865Z,37.37
2017-10-24T19:28:10.750Z,32.43
2017-10-24T19:30:40.646Z,35.77
2017-10-24T19:33:10.860Z,35.53
2017-10-24T19:35:40.847Z,37.50
2017-10-24T19:38:11.148Z,33.40
2017-10-24T19:40:41.013Z,33.73
2017-10-24T19:43:11.233Z,33.37
2017-10-24T19:45:41.108Z,29.90
2017-10-24T19:48:11.362Z,30.33
2017-10-24T19:50:41.234Z,30.20
2017-10-24T19:53:11.114Z,34.03
2017-10-24T19:55:40.992Z,29.60
2017-10-24T19:58:10.858Z,32.30
2017-10-24T20:00:41.052Z,38.27
2017-10-24T20:03:10.920Z,37.10
2017-10-24T20:05:41.070Z,36.07
2017-10-24T20:08:10.957Z,40.87
2017-10-24T20:10:41.097Z,37.10
2017-10-24T20:13:10.963Z,39.53
2017-10-24T20:15:41.199Z,40.20
2017-10-24T20:18:11.083Z,38.77
2017-10-24T20:20:40.981Z,38.67
2017-10-24T20:23:10.879Z,41.57
2017-10-24T20:25:41.090Z,39.60
2017-10-24T20:28:10.959Z,44.60
2017-10-24T20:30:40.850Z,45.90
2017-10-24T20:33:11.666Z,49.70
2017-10-24T20:35:41.865Z,47.53
2017-10-24T20:38:11.876Z,43.17
2017-10-24T20:40:41.764Z,39.87
2017-10-24T20:43:11.636Z,42.40
2017-10-24T20:45:41.928Z,39.93
2017-10-24T20:48:11.824Z,35.87
2017-10-24T20:50:42.026Z,36.53
2017-10-24T20:53:11.975Z,44.30
2017-10-24T20:55:42.202Z,44.27
2017-10-24T20:58:12.099Z,45.10
2017-10-24T21:00:42.330Z,46.20
2017-10-24T21:03:12.269Z,39.67
2017-10-24T21:05:42.401Z,39.00
2017-10-24T21:08:12.272Z,45.73
2017-10-24T21:10:42.148Z,42.30
2017-10-24T21:13:12.013Z,37.47
2017-10-24T21:15:41.887Z,47.67
2017-10-24T21:18:12.040Z,40.97
2017-10-24T21:20:41.975Z,44.13
2017-10-24T21:23:12.159Z,42.10
2017-10-24T21:25:42.018Z,42.20
2017-10-24T21:28:12.222Z,50.67
2017-10-24T21:30:42.129Z,38.07
2017-10-24T21:33:12.039Z,47.60
2017-10-24T21:35:41.905Z,40.60
2017-10-24T21:38:11.802Z,39.93
2017-10-24T21:40:41.691Z,44.73
2017-10-24T21:43:11.592Z,41.60
2017-10-24T21:45:41.485Z,44.43
2017-10-24T21:48:11.406Z,39.00
2017-10-24T21:50:41.273Z,36.80
2017-10-24T21:53:11.182Z,34.80
2017-10-24T21:55:41.055Z,34.00
2017-10-24T21:58:10.911Z,36.43
2017-10-24T22:00:51.851Z,35.20
2017-10-24T22:03:21.737Z,36.60
2017-10-24T22:05:51.969Z,38.10
2017-10-24T22:08:21.831Z,32.30
2017-10-24T22:10:52.017Z,31.67
2017-10-24T22:13:21.865Z,36.80
2017-10-24T22:15:52.042Z,34.20
2017-10-24T22:18:21.941Z,37.00
2017-10-24T22:20:52.101Z,38.27
2017-10-24T22:23:21.975Z,35.50
2017-10-24T22:25:52.597Z,34.80
2017-10-24T22:28:22.465Z,36.63
2017-10-24T22:30:52.738Z,37.67
2017-10-24T22:33:22.598Z,38.23
2017-10-24T22:35:52.479Z,35.70
2017-10-24T22:38:22.341Z,39.40
2017-10-24T22:40:52.214Z,36.23
2017-10-24T22:43:22.099Z,40.53
2017-10-24T22:45:51.991Z,33.10
2017-10-24T22:48:22.232Z,34.40
2017-10-24T22:50:52.103Z,50.83
2017-10-24T22:53:22.008Z,39.97
2017-10-24T22:55:51.953Z,40.97
2017-10-24T22:58:22.202Z,39.00
2017-10-24T23:00:52.418Z,41.80
2017-10-24T23:03:22.393Z,45.63
2017-10-24T23:05:52.258Z,39.57
2017-10-24T23:08:22.252Z,43.57
2017-10-24T23:10:52.122Z,40.17
2017-10-24T23:13:21.992Z,41.70
2017-10-24T23:15:52.114Z,47.50
2017-10-24T23:18:21.976Z,45.03
2017-10-24T23:20:52.246Z,46.07
2017-10-24T23:23:22.101Z,45.73
2017-10-24T23:25:52.587Z,44.30
2017-10-24T23:28:22.493Z,49.90
2017-10-24T23:30:52.372Z,46.17
2017-10-24T23:33:22.252Z,49.53
2017-10-24T23:35:52.262Z,47.00
2017-10-24T23:38:22.269Z,44.33
2017-10-24T23:40:52.138Z,46.70
2017-10-24T23:43:22.393Z,43.23
2017-10-24T23:45:52.466Z,53.00
2017-10-24T23:48:22.631Z,52.00
2017-10-24T23:50:52.485Z,47.57
2017-10-24T23:53:22.869Z,47.97
2017-10-24T23:55:52.989Z,42.77
2017-10-24T23:58:23.113Z,47.03
